• Join FlightAware (Why Join?)
  • Login
  • US Flag 
08:47PM EST


 

Airport Tracker/Info


-or-


 

Live Flight TrackerFlight Track Log ✈ FDX1254 ✈ 13-Jun-2013 ✈ KPVD - KFWA

Flight Track Log - Related Links

Times and Time Zones

All times are in EDT time to prevent confusion due to time zone crossing. See the FDX1254 flight status page for this flight to view local times or setup timezone preferences in your user account.

Time Position Orientation Groundspeed Altitude Reporting Facility
EDT Latitude Longitude Course Direction KTS MPH feet Rate Location/Type
09:17PM 41.8320 -71.4910 296° West 295 339 6,400  Level FlightAware
09:17PM 41.8520 -71.5420 298° West 274 315 9,200 4,080 Climbing FlightAware
09:18PM 41.8730 -71.6050 294° West 295 339 11,200 2,220 Climbing FlightAware
09:19PM 41.9000 -71.6890 293° West 351 404 12,400 1,920 Climbing FlightAware
09:19PM 41.9260 -71.7700 293° West 366 421 14,000 2,700 Climbing FlightAware
09:20PM 41.9550 -71.8650 292° West 380 437 16,200 2,820 Climbing FlightAware
09:21PM 41.9790 -71.9420 293° West 387 445 17,700 2,400 Climbing FlightAware
09:22PM 41.9860 -71.9620 295° West 395 455 19,600 2,220 Climbing FlightAware
09:22PM 42.0400 -72.1330 293° West 406 467 20,900 1,200 Climbing FlightAware
09:23PM 42.0710 -72.2360 292° West 406 467 21,300 2,040 Climbing FlightAware
09:24PM 42.1040 -72.3370 294° West 421 484 23,900 3,060 Climbing FlightAware
09:24PM 42.1350 -72.4390 292° West 422 486 25,300 1,560 Climbing FlightAware
09:25PM 42.1700 -72.5520 293° West 430 495 26,100 1,380 Climbing FlightAware
09:26PM 42.2000 -72.6490 293° West 432 497 27,300 1,620 Climbing FlightAware
09:26PM 42.2360 -72.7670 292° West 439 505 28,500 1,800 Climbing FlightAware
09:27PM 42.2700 -72.8790 292° West 438 504 30,000 1,620 Climbing FlightAware
09:28PM 42.2930 -72.9740 288° West 429 494 30,800 1,560 Climbing FlightAware
09:29PM 42.2900 -73.0930 268° West 415 478 32,400 1,920 Climbing FlightAware
09:29PM 42.2790 -73.0850 152° Southeast 403 464 33,700 2,820 Climbing FlightAware
09:30PM 42.2580 -73.3280 263° West 388 447 36,700 2,820 Climbing FlightAware
09:31PM 42.2498 -73.4188 263° West 386 444 37,800 1,620 Climbing FlightAware ADS-B
09:31PM 42.2423 -73.5018 263° West 383 441 38,700 1,380 Climbing FlightAware ADS-B
09:32PM 42.2326 -73.6103 263° West 382 440 39,700 960 Climbing FlightAware ADS-B
09:33PM 42.2256 -73.6858 263° West 382 440 40,000 240 Climbing FlightAware ADS-B
09:33PM 42.2180 -73.7684 263° West 383 441 40,000  Level FlightAware ADS-B
09:34PM 42.2108 -73.8445 263° West 385 443 40,000  Level FlightAware ADS-B
09:34PM 42.2038 -73.9206 263° West 386 444 40,000  Level FlightAware ADS-B
09:35PM 42.1966 -73.9946 263° West 387 445 40,000  Level FlightAware ADS-B
09:35PM 42.1897 -74.0688 263° West 387 445 40,000  Level FlightAware ADS-B
09:36PM 42.1824 -74.1432 262° West 388 447 40,000  Level FlightAware ADS-B
09:37PM 42.1699 -74.2729 263° West 390 449 40,000  Level FlightAware ADS-B
09:37PM 42.1627 -74.3453 262° West 391 450 40,000  Level FlightAware ADS-B
09:38PM 42.1554 -74.4201 263° West 392 451 40,000  Level FlightAware ADS-B
09:38PM 42.1474 -74.5000 262° West 392 451 40,000  Level FlightAware ADS-B
09:39PM 42.1400 -74.5749 262° West 393 452 40,000  Level FlightAware ADS-B
09:39PM 42.1323 -74.6502 262° West 395 455 40,000  Level FlightAware ADS-B
09:40PM 42.1249 -74.7233 262° West 396 456 40,000  Level FlightAware ADS-B
09:40PM 42.1174 -74.7965 262° West 398 458 40,000  Level FlightAware ADS-B
09:41PM 42.1094 -74.8750 262° West 399 459 40,000  Level FlightAware ADS-B
09:41PM 42.1016 -74.9490 262° West 401 461 40,000  Level FlightAware ADS-B
09:42PM 42.0937 -75.0256 262° West 402 463 40,000  Level FlightAware ADS-B
09:43PM 42.0852 -75.1075 262° West 405 466 40,000  Level FlightAware ADS-B
09:43PM 42.0769 -75.1852 262° West 407 468 40,000  Level FlightAware ADS-B
09:44PM 42.0684 -75.2653 262° West 407 468 40,000  Level FlightAware ADS-B
09:44PM 42.0646 -75.2899 258° West 407 468 40,000  Level FlightAware ADS-B
09:44PM 42.0550 -75.3308 252° West 406 467 40,000  Level FlightAware ADS-B
09:44PM 42.0442 -75.3607 244° Southwest 406 467 40,000  Level FlightAware ADS-B
09:45PM 42.0221 -75.4183 243° Southwest 405 466 40,000  Level FlightAware ADS-B
09:45PM 41.9907 -75.4931 241° Southwest 406 467 40,000  Level FlightAware ADS-B
09:46PM 41.9627 -75.5591 240° Southwest 407 468 40,000  Level FlightAware ADS-B
09:46PM 41.9354 -75.6256 241° Southwest 407 468 40,000  Level FlightAware ADS-B
09:47PM 41.9133 -75.6951 247° West 408 470 40,000  Level FlightAware ADS-B
09:47PM 41.8958 -75.7701 253° West 410 472 40,000  Level FlightAware ADS-B
09:48PM 41.8792 -75.8432 253° West 411 473 40,000  Level FlightAware ADS-B
09:48PM 41.8628 -75.9165 253° West 412 474 40,000  Level FlightAware ADS-B
09:49PM 41.8465 -75.9924 254° West 413 475 40,000  Level FlightAware ADS-B
09:49PM 41.8296 -76.0684 253° West 414 476 40,000  Level FlightAware ADS-B
09:50PM 41.8132 -76.1422 253° West 415 478 40,000  Level FlightAware ADS-B
09:50PM 41.7967 -76.2164 253° West 416 479 40,000  Level FlightAware ADS-B
09:51PM 41.7802 -76.2904 253° West 418 481 40,000  Level FlightAware ADS-B
09:51PM 41.7626 -76.3699 253° West 419 482 40,000  Level FlightAware ADS-B
09:52PM 41.7443 -76.4515 253° West 418 481 40,000  Level FlightAware ADS-B
09:52PM 41.7273 -76.5256 253° West 418 481 40,000  Level FlightAware ADS-B
09:53PM 41.7096 -76.6047 253° West 417 480 40,000  Level FlightAware ADS-B
09:53PM 41.6925 -76.6811 253° West 418 481 40,000  Level FlightAware ADS-B
09:54PM 41.6754 -76.7550 253° West 417 480 40,000  Level FlightAware ADS-B
09:54PM 41.6583 -76.8315 253° West 418 481 40,000  Level FlightAware ADS-B
09:55PM 41.6364 -76.9255 253° West 419 482 40,000  Level FlightAware ADS-B
09:56PM 41.6135 -77.0246 253° West 419 482 40,000  Level FlightAware ADS-B
09:56PM 41.5948 -77.1066 253° West 422 486 40,000  Level FlightAware ADS-B
09:57PM 41.5622 -77.2461 253° West 424 488 40,000  Level FlightAware ADS-B
09:58PM 41.5350 -77.3610 252° West 427 491 40,000  Level FlightAware
09:58PM 41.5204 -77.4244 253° West 424 488 40,000  Level FlightAware ADS-B
09:59PM 41.4870 -77.5660 253° West 431 496 40,000  Level FlightAware
10:00PM 41.4630 -77.6670 252° West 433 498 40,000  Level FlightAware
10:01PM 41.4260 -77.8200 252° West 435 501 40,000  Level FlightAware
10:02PM 41.4020 -77.9250 253° West 435 501 40,000  Level FlightAware
10:03PM 41.3710 -78.0530 252° West 437 503 40,000  Level FlightAware
10:03PM 41.3460 -78.1550 252° West 439 505 40,000  Level FlightAware
10:04PM 41.3210 -78.2560 252° West 442 509 40,000  Level FlightAware
10:05PM 41.2960 -78.3620 253° West 442 509 40,000  Level FlightAware
10:05PM 41.2700 -78.4650 251° West 444 511 40,000  Level FlightAware
10:06PM 41.2390 -78.5930 252° West 445 512 40,000  Level FlightAware
10:07PM 41.2060 -78.7250 252° West 446 513 40,000  Level FlightAware
10:08PM 41.1770 -78.8420 252° West 446 513 40,000  Level FlightAware
10:08PM 41.1530 -78.9380 252° West 447 514 40,000  Level FlightAware
10:09PM 41.1170 -79.0810 252° West 449 517 40,000  Level FlightAware
10:10PM 41.0860 -79.2040 252° West 449 517 40,000  Level FlightAware
10:11PM 41.0410 -79.3780 251° West 446 513 40,000  Level FlightAware
10:12PM 41.0140 -79.4870 252° West 442 509 40,000  Level FlightAware
10:13PM 40.9810 -79.6120 251° West 440 506 40,000  Level FlightAware
10:13PM 40.9550 -79.7140 251° West 440 506 40,000  Level FlightAware
10:14PM 40.9250 -79.8310 251° West 439 505 40,000  Level FlightAware
10:15PM 40.9010 -79.9220 251° West 438 504 40,000  Level FlightAware
10:15PM 40.8840 -79.9880 251° West 438 504 40,000  Level FlightAware
10:18PM 40.8400 -80.5070 264° West 441 507 40,000  Level FlightAware
10:19PM 40.8460 -80.6250 274° West 440 506 40,000  Level FlightAware
10:20PM 40.8510 -80.7190 274° West 441 507 40,000  Level FlightAware
10:20PM 40.8570 -80.8500 274° West 442 509 40,000  Level FlightAware
10:21PM 40.8620 -80.9580 274° West 442 509 40,000  Level FlightAware
10:22PM 40.8670 -81.0770 273° West 444 511 40,000  Level FlightAware
10:23PM 40.8720 -81.1850 274° West 444 511 40,000  Level FlightAware
10:23PM 40.8770 -81.3040 273° West 440 506 40,000  Level FlightAware
10:24PM 40.8820 -81.4060 274° West 437 503 40,000  Level FlightAware
10:25PM 40.8870 -81.5270 273° West 433 498 40,000  Level FlightAware
10:25PM 40.8910 -81.6380 273° West 430 495 40,000  Level FlightAware
10:26PM 40.8950 -81.7430 273° West 429 494 40,000  Level FlightAware
10:27PM 40.8970 -81.8530 271° West 429 494 40,000  Level FlightAware
10:27PM 40.8990 -81.9670 271° West 428 493 40,000 -240 Level FlightAware
10:28PM 40.9010 -82.0770 271° West 431 496 39,700 -960 Descending FlightAware
10:29PM 40.9030 -82.1810 271° West 411 473 38,700 -2,400 Descending FlightAware
10:30PM 40.9050 -82.2930 271° West 398 458 36,300 -3,180 Descending FlightAware
10:30PM 40.9060 -82.3100 274° West 399 459 35,900 -1,980 Descending FlightAware
10:31PM 40.9090 -82.4870 271° West 423 487 33,700 -1,800 Descending FlightAware
10:32PM 40.9140 -82.5930 274° West 438 504 32,600 -1,380 Descending FlightAware
10:32PM 40.9190 -82.7170 273° West 443 510 31,800 -1,140 Descending FlightAware
10:33PM 40.9230 -82.8280 273° West 447 514 31,000 -1,080 Descending FlightAware
10:34PM 40.9270 -82.9380 273° West 446 513 30,400 -720 Descending FlightAware
10:34PM 40.9320 -83.0660 273° West 447 514 30,000 -600 Descending FlightAware
10:36PM 40.9370 -83.2270 272° West 444 511 29,400 -1,200 Descending FlightAware
10:36PM 40.9410 -83.3550 272° West 432 497 27,900 -2,520 Descending FlightAware
10:37PM 40.9450 -83.4570 273° West 422 486 25,900 -2,940 Descending FlightAware
10:38PM 40.9480 -83.5660 272° West 412 474 23,900 -2,880 Descending FlightAware
10:38PM 40.9510 -83.6780 272° West 422 486 21,800 -2,940 Descending FlightAware
10:39PM 40.9540 -83.7700 273° West 412 474 20,000 -2,940 Descending FlightAware
10:40PM 40.9570 -83.8890 272° West 398 458 17,700 -1,260 Descending FlightAware
10:43PM 40.9610 -84.0360 272° West 380 437 14,800 -1,680 Descending FlightAware
10:44PM 40.9700 -84.4430 272° West 306 352 10,900 -3,480 Descending FlightAware
10:45PM 40.9710 -84.5160 271° West 288 331 10,100 -1,620 Descending FlightAware
10:45PM 40.9720 -84.5590 272° West 281 323 9,100 -2,520 Descending FlightAware
10:45PM 40.9720 -84.6000 270° West 281 323 8,000 -2,940 Descending FlightAware
10:46PM 40.9720 -84.6290 270° West 278 320 7,200 -1,020 Descending FlightAware
10:46PM 40.9700 -84.6700 266° West 277 319 7,200 -2,100 Level FlightAware
10:47PM 40.9647 -84.7461 266° West 274 315 4,400 -1,800 Descending Chicago Center
10:48PM 40.9558 -84.8414 263° West 267 307 4,000 -300 Descending Chicago Center
10:49PM 40.9472 -84.9303 263° West 258 297 3,900 -420 Descending Chicago Center
10:50PM 40.9392 -85.0122 263° West 244 281 3,200 -660 Descending Chicago Center
10:51PM 40.9342 -85.0794 264° West 219 252 2,600 -720 Descending Chicago Center
10:52PM 40.9411 -85.1356 279° West 165 190 1,800 -540 Descending Chicago Center
10:53PM 40.9614 -85.1575 321° Northwest 145 167 1,600 -240 Descending Chicago Center